createdAt,value
2018-12-16T00:01:49.297Z,0.30
2018-12-16T00:04:16.754Z,0.30
2018-12-16T00:06:44.230Z,0.30
2018-12-16T00:09:11.684Z,0.40
2018-12-16T00:11:39.169Z,0.40
2018-12-16T00:14:06.625Z,0.40
2018-12-16T00:16:34.120Z,0.40
2018-12-16T00:19:01.585Z,0.40
2018-12-16T00:21:29.049Z,0.30
2018-12-16T00:23:56.501Z,0.30
2018-12-16T00:26:27.812Z,0.30
2018-12-16T00:28:55.264Z,0.30
2018-12-16T00:31:22.717Z,0.40
2018-12-16T00:33:50.166Z,0.40
2018-12-16T00:36:17.624Z,0.40
2018-12-16T00:38:45.102Z,0.30
2018-12-16T00:41:12.582Z,0.40
2018-12-16T00:43:40.025Z,0.40
2018-12-16T00:46:07.486Z,0.40
2018-12-16T00:48:34.974Z,0.40
2018-12-16T00:51:02.444Z,0.40
2018-12-16T00:53:29.886Z,0.40
2018-12-16T00:55:57.401Z,0.40
2018-12-16T00:58:24.858Z,0.30
2018-12-16T01:00:52.317Z,0.30
2018-12-16T01:03:19.797Z,0.30
2018-12-16T01:05:47.258Z,0.30
2018-12-16T01:08:14.724Z,0.30
2018-12-16T01:10:42.190Z,0.20
2018-12-16T01:13:09.640Z,0.10
2018-12-16T01:15:37.157Z,0.20
2018-12-16T01:18:04.674Z,0.10
2018-12-16T01:20:32.172Z,0.00
2018-12-16T01:22:59.618Z,0.20
2018-12-16T01:25:27.123Z,0.20
2018-12-16T01:27:54.570Z,0.10
2018-12-16T01:30:22.056Z,0.20
2018-12-16T01:32:49.526Z,0.20
2018-12-16T01:35:17.016Z,0.10
2018-12-16T01:37:44.518Z,0.10
2018-12-16T01:40:12.007Z,0.20
2018-12-16T01:42:39.456Z,0.20
2018-12-16T01:45:07.274Z,0.20
2018-12-16T01:47:34.753Z,0.10
2018-12-16T01:50:02.266Z,0.10
2018-12-16T01:52:29.764Z,0.10
2018-12-16T01:54:57.301Z,0.00
2018-12-16T01:57:24.788Z,-0.10
2018-12-16T01:59:52.262Z,-0.40
2018-12-16T02:02:19.722Z,-0.50
2018-12-16T02:04:47.181Z,-0.40
2018-12-16T02:07:15.028Z,-0.40
2018-12-16T02:09:42.478Z,-0.40
2018-12-16T02:12:09.940Z,-0.40
2018-12-16T02:14:37.381Z,-0.20
2018-12-16T02:17:04.846Z,-0.30
2018-12-16T02:19:32.345Z,-0.20
2018-12-16T02:21:59.805Z,-0.30
2018-12-16T02:24:27.297Z,-0.40
2018-12-16T02:26:54.752Z,-0.50
2018-12-16T02:29:22.207Z,-0.50
2018-12-16T02:31:49.662Z,-0.50
2018-12-16T02:34:17.114Z,-0.60
2018-12-16T02:36:44.668Z,-0.60
2018-12-16T02:39:12.134Z,-0.60
2018-12-16T02:41:39.647Z,-0.50
2018-12-16T02:44:07.108Z,-0.30
2018-12-16T02:46:34.602Z,-0.30
2018-12-16T02:49:02.076Z,-0.30
2018-12-16T02:51:29.531Z,-0.40
2018-12-16T02:53:57.029Z,-0.30
2018-12-16T02:56:24.518Z,-0.40
2018-12-16T02:58:52.251Z,-0.50
2018-12-16T03:01:19.712Z,-0.40
2018-12-16T03:03:47.201Z,-0.40
2018-12-16T03:06:14.660Z,-0.50
2018-12-16T03:08:42.107Z,-0.60
2018-12-16T03:11:09.571Z,-0.60
2018-12-16T03:13:37.418Z,-0.60
2018-12-16T03:16:04.865Z,-0.50
2018-12-16T03:18:32.315Z,-0.70
2018-12-16T03:21:00.225Z,-0.60
2018-12-16T03:23:27.765Z,-0.70
2018-12-16T03:25:55.221Z,-0.70
2018-12-16T03:28:22.679Z,-0.70
2018-12-16T03:30:50.178Z,-0.60
2018-12-16T03:33:17.655Z,-0.60
2018-12-16T03:35:45.101Z,-0.50
2018-12-16T03:38:12.562Z,-1.00
2018-12-16T03:40:40.025Z,-0.70
2018-12-16T03:43:07.487Z,-0.70
2018-12-16T03:45:34.955Z,-0.70
2018-12-16T03:48:02.418Z,-0.80
2018-12-16T03:50:29.872Z,-1.00
2018-12-16T03:52:57.337Z,-1.20
2018-12-16T03:55:24.821Z,-0.90
2018-12-16T03:57:52.326Z,-0.90
2018-12-16T04:00:19.814Z,-0.80
2018-12-16T04:02:47.275Z,-1.10
2018-12-16T04:05:14.753Z,-1.10
2018-12-16T04:07:42.225Z,-1.00
2018-12-16T04:10:09.715Z,-0.90
2018-12-16T04:12:37.172Z,-1.10
2018-12-16T04:15:05.404Z,-1.00
2018-12-16T04:17:32.926Z,-1.10
2018-12-16T04:20:00.379Z,-1.20
2018-12-16T04:22:27.829Z,-1.00
2018-12-16T04:24:55.293Z,-1.10
2018-12-16T04:27:22.765Z,-1.00
2018-12-16T04:29:50.213Z,-1.00
2018-12-16T04:32:17.688Z,-1.00
2018-12-16T04:34:45.146Z,-1.00
2018-12-16T04:37:12.629Z,-1.00
2018-12-16T04:39:40.089Z,-1.00
2018-12-16T04:42:08.541Z,-0.90
2018-12-16T04:44:35.994Z,-0.90
2018-12-16T04:47:03.503Z,-0.90
2018-12-16T04:49:30.957Z,-0.90
2018-12-16T04:51:58.424Z,-0.70
2018-12-16T04:54:25.896Z,-0.60
2018-12-16T04:56:53.341Z,-0.70
2018-12-16T04:59:20.803Z,-0.60
2018-12-16T05:01:48.255Z,-0.60
2018-12-16T05:04:15.728Z,-0.60
2018-12-16T05:06:43.204Z,-0.60
2018-12-16T05:09:10.703Z,-0.80
2018-12-16T05:11:38.165Z,-0.70
2018-12-16T05:14:05.666Z,-0.60
2018-12-16T05:16:33.168Z,-0.70
2018-12-16T05:19:00.630Z,-0.60
2018-12-16T05:21:28.079Z,-0.70
2018-12-16T05:23:55.562Z,-0.80
2018-12-16T05:26:23.017Z,-0.70
2018-12-16T05:28:50.512Z,-0.70
2018-12-16T05:31:17.957Z,-0.70
2018-12-16T05:33:45.453Z,-0.50
2018-12-16T05:36:12.941Z,-0.50
2018-12-16T05:38:40.451Z,-0.40
2018-12-16T05:41:07.946Z,-0.30
2018-12-16T05:43:35.405Z,-0.30
2018-12-16T05:46:02.893Z,-0.30
2018-12-16T05:48:30.345Z,-0.30
2018-12-16T05:50:57.857Z,-0.20
2018-12-16T05:53:25.732Z,-0.20
2018-12-16T05:55:53.189Z,-0.20
2018-12-16T05:58:20.661Z,-0.20
2018-12-16T06:00:48.128Z,-0.20
2018-12-16T06:03:15.593Z,-0.20
2018-12-16T06:05:43.051Z,-0.20
2018-12-16T06:08:10.496Z,-0.20
2018-12-16T06:10:37.961Z,-0.20
2018-12-16T06:13:05.424Z,-0.10
2018-12-16T06:15:32.889Z,-0.10
2018-12-16T06:18:00.340Z,-0.10
2018-12-16T06:20:27.799Z,0.00
2018-12-16T06:22:55.249Z,-0.10
2018-12-16T06:25:22.709Z,-0.20
2018-12-16T06:27:50.158Z,-0.30
2018-12-16T06:30:18.392Z,-0.10
2018-12-16T06:32:45.842Z,-0.10
2018-12-16T06:35:13.305Z,-0.10
2018-12-16T06:37:40.756Z,-0.10
2018-12-16T06:40:08.223Z,-0.20
2018-12-16T06:42:35.668Z,-0.10
2018-12-16T06:45:03.195Z,-0.10
2018-12-16T06:47:30.656Z,-0.10
2018-12-16T06:49:58.150Z,-0.10
2018-12-16T06:52:25.616Z,-0.10
2018-12-16T06:54:53.074Z,-0.10
2018-12-16T06:57:20.534Z,0.00
2018-12-16T06:59:48.014Z,0.00
2018-12-16T07:02:15.519Z,-0.10
2018-12-16T07:04:43.027Z,-0.10
2018-12-16T07:07:10.493Z,0.00
2018-12-16T07:09:37.942Z,0.00
2018-12-16T07:12:05.388Z,0.00
2018-12-16T07:14:32.951Z,0.00
2018-12-16T07:17:00.803Z,0.00
2018-12-16T07:19:28.289Z,0.10
2018-12-16T07:21:55.846Z,0.10
2018-12-16T07:24:23.345Z,0.10
2018-12-16T07:26:50.813Z,0.10
2018-12-16T07:29:18.352Z,0.10
2018-12-16T07:31:45.854Z,0.00
2018-12-16T07:34:13.391Z,0.10
2018-12-16T07:36:40.826Z,0.10
2018-12-16T07:39:08.301Z,0.10
2018-12-16T07:41:35.843Z,0.10
2018-12-16T07:44:03.398Z,0.10
2018-12-16T07:46:30.931Z,0.10
2018-12-16T07:48:58.398Z,0.20
2018-12-16T07:51:25.986Z,0.20
2018-12-16T07:53:53.653Z,0.20
2018-12-16T07:56:21.131Z,0.20
2018-12-16T07:58:48.699Z,0.20
2018-12-16T08:01:16.223Z,0.20
2018-12-16T08:03:43.690Z,0.30
2018-12-16T08:06:11.158Z,0.30
2018-12-16T08:08:38.688Z,0.30
2018-12-16T08:11:06.159Z,0.30
2018-12-16T08:13:33.960Z,0.30
2018-12-16T08:16:01.431Z,0.40
2018-12-16T08:18:28.894Z,0.30
2018-12-16T08:20:56.388Z,0.30
2018-12-16T08:23:23.859Z,0.40
2018-12-16T08:25:51.349Z,0.40
2018-12-16T08:28:18.819Z,0.40
2018-12-16T08:30:46.285Z,0.40
2018-12-16T08:33:13.751Z,0.40
2018-12-16T08:35:41.243Z,0.50
2018-12-16T08:38:08.691Z,0.50
2018-12-16T08:40:36.150Z,0.50
2018-12-16T08:43:03.667Z,0.50
2018-12-16T08:45:31.138Z,0.50
2018-12-16T08:47:58.889Z,0.60
2018-12-16T08:50:26.377Z,0.60
2018-12-16T08:52:53.838Z,0.60
2018-12-16T08:55:21.317Z,0.60
2018-12-16T08:57:48.758Z,0.60
2018-12-16T09:00:16.232Z,0.60
2018-12-16T09:02:43.687Z,0.70
2018-12-16T09:05:11.247Z,0.70
2018-12-16T09:07:38.957Z,0.70
2018-12-16T09:10:08.598Z,0.70
2018-12-16T09:17:25.844Z,0.70
2018-12-16T09:19:53.551Z,0.80
2018-12-16T09:22:21.028Z,0.80
2018-12-16T09:24:48.508Z,0.80
2018-12-16T09:27:15.987Z,0.90
2018-12-16T09:29:43.441Z,0.90
2018-12-16T09:32:10.916Z,0.90
2018-12-16T09:34:38.418Z,0.90
2018-12-16T09:37:05.939Z,0.90
2018-12-16T09:39:33.465Z,0.90
2018-12-16T09:42:00.927Z,1.00
2018-12-16T09:44:28.389Z,1.00
2018-12-16T09:46:55.895Z,1.00
2018-12-16T09:49:23.343Z,1.00
2018-12-16T09:51:50.838Z,1.00
2018-12-16T09:54:18.287Z,1.00
2018-12-16T09:56:45.773Z,1.10
2018-12-16T09:59:13.233Z,1.10
2018-12-16T10:01:40.722Z,1.10
2018-12-16T10:04:08.158Z,1.10
2018-12-16T10:06:35.624Z,1.40
2018-12-16T10:09:05.126Z,1.40
2018-12-16T10:11:32.593Z,1.40
2018-12-16T10:14:00.030Z,1.50
2018-12-16T10:16:27.504Z,1.40
2018-12-16T10:18:54.992Z,1.50
2018-12-16T10:21:22.456Z,1.40
2018-12-16T10:23:49.915Z,1.40
2018-12-16T10:26:17.365Z,1.40
2018-12-16T10:28:44.804Z,1.30
2018-12-16T10:31:12.261Z,1.40
2018-12-16T10:33:39.740Z,1.40
2018-12-16T10:36:07.244Z,1.50
2018-12-16T10:38:34.686Z,1.50
2018-12-16T10:41:02.137Z,1.50
2018-12-16T10:43:29.590Z,1.60
2018-12-16T10:45:57.033Z,1.60
2018-12-16T10:48:24.487Z,1.70
2018-12-16T10:50:51.964Z,1.70
2018-12-16T10:53:19.404Z,1.70
2018-12-16T10:55:46.889Z,1.80
2018-12-16T10:58:14.366Z,2.00
2018-12-16T11:00:47.634Z,2.00
2018-12-16T11:03:16.018Z,2.00
2018-12-16T11:05:44.403Z,2.10
2018-12-16T11:08:11.841Z,2.20
2018-12-16T11:10:39.345Z,2.20
2018-12-16T11:13:07.267Z,2.20
2018-12-16T11:15:34.730Z,2.30
2018-12-16T11:18:02.196Z,2.30
2018-12-16T11:20:29.706Z,2.40
2018-12-16T11:22:57.158Z,2.40
2018-12-16T11:25:24.619Z,2.40
2018-12-16T11:27:52.089Z,2.40
2018-12-16T11:30:19.576Z,2.40
2018-12-16T11:32:47.050Z,2.50
2018-12-16T11:35:14.511Z,2.50
2018-12-16T11:37:41.958Z,2.50
2018-12-16T11:40:09.466Z,2.50
2018-12-16T11:42:36.913Z,2.50
2018-12-16T11:45:05.832Z,2.60
2018-12-16T11:47:33.295Z,2.60
2018-12-16T11:50:00.732Z,2.70
2018-12-16T11:52:28.268Z,2.70
2018-12-16T11:54:55.776Z,2.70
2018-12-16T11:57:23.307Z,2.80
2018-12-16T11:59:50.753Z,2.80
2018-12-16T12:02:18.243Z,2.80
2018-12-16T12:04:45.707Z,2.70
2018-12-16T12:07:13.181Z,2.80
2018-12-16T12:09:40.889Z,2.90
2018-12-16T12:12:08.573Z,2.90
2018-12-16T12:14:37.235Z,2.90
2018-12-16T12:17:04.756Z,3.00
2018-12-16T12:19:37.066Z,3.10
2018-12-16T12:22:04.594Z,3.10
2018-12-16T12:24:32.052Z,3.10
2018-12-16T12:26:59.512Z,3.10
2018-12-16T12:29:26.978Z,3.10
2018-12-16T12:31:54.432Z,3.10
2018-12-16T12:34:22.005Z,3.20
2018-12-16T12:36:49.494Z,3.30
2018-12-16T12:39:16.966Z,3.30
2018-12-16T12:41:44.421Z,3.30
2018-12-16T12:44:11.884Z,3.30
2018-12-16T12:46:39.336Z,3.30
2018-12-16T12:49:06.796Z,3.20
2018-12-16T12:51:34.261Z,3.30
2018-12-16T12:54:01.721Z,3.40
2018-12-16T12:56:29.633Z,3.40
2018-12-16T12:58:57.093Z,3.40
2018-12-16T13:01:24.581Z,3.40
2018-12-16T13:03:52.065Z,3.40
2018-12-16T13:06:19.540Z,3.40
2018-12-16T13:08:46.988Z,3.50
2018-12-16T13:11:14.809Z,3.60
2018-12-16T13:13:42.288Z,3.60
2018-12-16T13:16:09.751Z,3.70
2018-12-16T13:18:37.210Z,3.70
2018-12-16T13:21:04.698Z,3.70
2018-12-16T13:23:32.177Z,3.70
2018-12-16T13:26:02.293Z,3.80
2018-12-16T13:28:29.817Z,3.80
2018-12-16T13:30:57.324Z,3.80
2018-12-16T13:33:24.784Z,3.80
2018-12-16T13:35:52.230Z,3.80
2018-12-16T13:38:19.701Z,3.80
2018-12-16T13:40:47.157Z,3.70
2018-12-16T13:43:14.728Z,3.70
2018-12-16T13:45:42.221Z,3.70
2018-12-16T13:48:09.702Z,3.70
2018-12-16T13:50:37.181Z,3.70
2018-12-16T13:53:04.710Z,3.80
2018-12-16T13:55:32.342Z,3.80
2018-12-16T13:58:00.137Z,3.80
2018-12-16T14:00:27.631Z,3.80
2018-12-16T14:02:55.115Z,3.80
2018-12-16T14:05:22.641Z,3.90
2018-12-16T14:07:50.128Z,3.90
2018-12-16T14:10:17.630Z,3.90
2018-12-16T14:12:45.127Z,3.90
2018-12-16T14:15:12.637Z,3.90
2018-12-16T14:17:40.480Z,3.90
2018-12-16T14:20:08.513Z,3.80
2018-12-16T14:22:35.969Z,3.70
2018-12-16T14:25:03.784Z,3.60
2018-12-16T14:27:31.235Z,3.60
2018-12-16T14:29:58.692Z,3.60
2018-12-16T14:32:26.595Z,3.70
2018-12-16T14:34:54.454Z,3.90
2018-12-16T14:37:21.973Z,3.90
2018-12-16T14:39:49.423Z,3.70
2018-12-16T14:42:16.921Z,3.60
2018-12-16T14:44:44.391Z,3.50
2018-12-16T14:47:11.851Z,3.40
2018-12-16T14:49:39.330Z,3.40
2018-12-16T14:52:06.934Z,3.30
2018-12-16T14:54:34.394Z,3.20
2018-12-16T14:57:01.855Z,3.40
2018-12-16T14:59:29.307Z,3.60
2018-12-16T15:01:56.778Z,3.60
2018-12-16T15:04:24.264Z,3.70
2018-12-16T15:06:51.772Z,3.80
2018-12-16T15:09:19.377Z,3.80
2018-12-16T15:11:47.030Z,3.70
2018-12-16T15:14:14.573Z,3.40
2018-12-16T15:16:42.043Z,3.40
2018-12-16T15:19:09.814Z,3.30
2018-12-16T15:21:37.381Z,3.20
2018-12-16T15:24:04.874Z,3.30
2018-12-16T15:26:32.699Z,3.40
2018-12-16T15:29:00.145Z,3.30
2018-12-16T15:31:27.601Z,3.30
2018-12-16T15:33:55.067Z,3.30
2018-12-16T15:36:22.528Z,3.30
2018-12-16T15:38:50.015Z,3.20
2018-12-16T15:41:17.477Z,3.20
2018-12-16T15:43:45.352Z,3.10
2018-12-16T15:46:12.809Z,3.10
2018-12-16T15:48:40.677Z,3.10
2018-12-16T15:51:08.136Z,3.00
2018-12-16T15:53:35.793Z,3.10
2018-12-16T15:56:09.243Z,3.10
2018-12-16T15:58:32.850Z,3.00
2018-12-16T16:01:00.554Z,3.00
2018-12-16T16:03:28.018Z,3.00
2018-12-16T16:05:55.482Z,2.90
2018-12-16T16:08:22.943Z,2.90
2018-12-16T16:10:50.405Z,2.90
2018-12-16T16:13:17.869Z,2.90
2018-12-16T16:15:45.337Z,2.80
2018-12-16T16:18:13.125Z,2.80
2018-12-16T16:20:40.592Z,2.80
2018-12-16T16:23:08.071Z,2.80
2018-12-16T16:25:35.680Z,2.80
2018-12-16T16:28:03.161Z,2.70
2018-12-16T16:30:30.641Z,2.70
2018-12-16T16:32:58.146Z,2.70
2018-12-16T16:35:25.689Z,2.70
2018-12-16T16:38:00.480Z,2.70
2018-12-16T16:40:22.704Z,2.70
2018-12-16T16:42:50.144Z,2.70
2018-12-16T16:45:17.600Z,2.70
2018-12-16T16:47:45.055Z,2.80
2018-12-16T16:50:12.564Z,2.80
2018-12-16T16:52:40.102Z,2.70
2018-12-16T16:55:07.646Z,2.70
2018-12-16T16:57:35.133Z,2.70
2018-12-16T17:00:03.180Z,2.70
2018-12-16T17:02:30.655Z,2.60
2018-12-16T17:04:58.117Z,2.60
2018-12-16T17:07:25.582Z,2.60
2018-12-16T17:09:53.180Z,2.50
2018-12-16T17:12:20.677Z,2.50
2018-12-16T17:14:48.177Z,2.40
2018-12-16T17:17:16.173Z,2.40
2018-12-16T17:19:44.150Z,2.30
2018-12-16T17:22:12.048Z,2.20
2018-12-16T17:24:39.519Z,2.20
2018-12-16T17:27:07.352Z,2.20
2018-12-16T17:29:34.789Z,2.20
2018-12-16T17:32:02.322Z,2.20
2018-12-16T17:34:29.790Z,2.20
2018-12-16T17:36:57.278Z,2.20
2018-12-16T17:39:24.728Z,2.30
2018-12-16T17:41:52.226Z,2.30
2018-12-16T17:44:19.710Z,2.30
2018-12-16T17:46:47.185Z,2.40
2018-12-16T17:49:15.560Z,2.40
2018-12-16T17:51:43.118Z,2.40
2018-12-16T17:54:10.573Z,2.40
2018-12-16T17:56:38.037Z,2.40
2018-12-16T17:59:05.801Z,2.40
2018-12-16T18:01:33.260Z,2.40
2018-12-16T18:04:00.731Z,2.40
2018-12-16T18:06:28.222Z,2.40
2018-12-16T18:08:55.690Z,2.40
2018-12-16T18:11:23.422Z,2.40
2018-12-16T18:13:50.877Z,2.50
2018-12-16T18:16:18.370Z,2.50
2018-12-16T18:18:45.823Z,2.50
2018-12-16T18:21:13.378Z,2.50
2018-12-16T18:23:40.864Z,2.50
2018-12-16T18:26:08.346Z,2.50
2018-12-16T18:28:35.795Z,2.50
2018-12-16T18:31:03.282Z,2.50
2018-12-16T18:33:30.771Z,2.50
2018-12-16T18:35:58.230Z,2.50
2018-12-16T18:38:25.685Z,2.50
2018-12-16T18:40:53.226Z,2.60
2018-12-16T18:43:20.687Z,2.60
2018-12-16T18:45:48.218Z,2.70
2018-12-16T18:48:15.725Z,2.70
2018-12-16T18:50:43.185Z,2.70
2018-12-16T18:53:10.653Z,2.70
2018-12-16T18:55:38.146Z,2.70
2018-12-16T18:58:05.632Z,2.60
2018-12-16T19:00:33.123Z,2.70
2018-12-16T19:03:00.581Z,2.70
2018-12-16T19:05:28.041Z,2.70
2018-12-16T19:07:55.500Z,2.70
2018-12-16T19:10:22.955Z,2.70
2018-12-16T19:12:50.400Z,2.70
2018-12-16T19:15:18.090Z,2.80
2018-12-16T19:17:45.559Z,2.80
2018-12-16T19:20:13.021Z,2.80
2018-12-16T19:22:40.485Z,2.80
2018-12-16T19:25:07.982Z,2.80
2018-12-16T19:27:35.556Z,2.80
2018-12-16T19:30:03.433Z,2.70
2018-12-16T19:32:30.917Z,2.80
2018-12-16T19:34:58.400Z,2.80
2018-12-16T19:37:25.870Z,2.80
2018-12-16T19:39:53.353Z,2.80
2018-12-16T19:42:20.831Z,2.80
2018-12-16T19:44:48.329Z,2.80
2018-12-16T19:47:15.793Z,2.80
2018-12-16T19:49:43.263Z,2.80
2018-12-16T19:52:10.792Z,2.80
2018-12-16T19:54:38.353Z,2.80
2018-12-16T19:57:05.854Z,2.80
2018-12-16T19:59:33.307Z,2.80
2018-12-16T20:02:00.760Z,2.80
2018-12-16T20:04:33.848Z,2.80
2018-12-16T20:07:01.305Z,2.80
2018-12-16T20:09:28.757Z,2.80
2018-12-16T20:11:56.227Z,2.90
2018-12-16T20:14:23.708Z,2.80
2018-12-16T20:16:51.178Z,2.90
2018-12-16T20:19:18.649Z,2.80
2018-12-16T20:21:46.106Z,2.80
2018-12-16T20:24:13.578Z,2.80
2018-12-16T20:26:41.089Z,2.80
2018-12-16T20:29:08.546Z,2.80
2018-12-16T20:31:36.037Z,2.80
2018-12-16T20:34:03.489Z,2.80
2018-12-16T20:36:30.956Z,2.80
2018-12-16T20:38:58.440Z,2.80
2018-12-16T20:41:25.896Z,2.80
2018-12-16T20:43:53.351Z,2.80
2018-12-16T20:46:20.818Z,2.80
2018-12-16T20:48:48.351Z,2.80
2018-12-16T20:51:15.842Z,2.70
2018-12-16T20:53:43.347Z,2.70
2018-12-16T20:56:10.837Z,2.70
2018-12-16T20:58:38.299Z,2.70
2018-12-16T21:01:05.837Z,2.70
2018-12-16T21:03:33.298Z,2.70
2018-12-16T21:06:00.755Z,2.70
2018-12-16T21:08:28.302Z,2.80
2018-12-16T21:10:55.778Z,2.80
2018-12-16T21:13:29.327Z,2.80
2018-12-16T21:16:02.544Z,2.80
2018-12-16T21:18:30.257Z,2.80
2018-12-16T21:20:57.698Z,2.70
2018-12-16T21:23:25.195Z,2.70
2018-12-16T21:25:52.659Z,2.80
2018-12-16T21:28:20.133Z,2.90
2018-12-16T21:30:47.608Z,2.90
2018-12-16T21:33:15.374Z,2.80
2018-12-16T21:35:42.863Z,2.80
2018-12-16T21:38:10.325Z,2.80
2018-12-16T21:40:37.798Z,2.80
2018-12-16T21:43:05.270Z,2.90
2018-12-16T21:45:32.710Z,2.80
2018-12-16T21:48:00.208Z,2.80
2018-12-16T21:50:28.639Z,2.90
2018-12-16T21:52:56.103Z,2.90
2018-12-16T21:55:23.597Z,2.90
2018-12-16T21:57:51.061Z,2.90
2018-12-16T22:00:18.527Z,2.90
2018-12-16T22:02:45.995Z,2.80
2018-12-16T22:05:14.592Z,2.80
2018-12-16T22:07:42.387Z,2.80
2018-12-16T22:10:09.832Z,2.70
2018-12-16T22:12:37.309Z,2.70
2018-12-16T22:15:04.913Z,2.70
2018-12-16T22:17:32.386Z,2.60
2018-12-16T22:19:59.856Z,2.70
2018-12-16T22:22:27.309Z,2.60
2018-12-16T22:24:54.761Z,2.70
2018-12-16T22:27:22.225Z,2.60
2018-12-16T22:29:49.721Z,2.70
2018-12-16T22:32:17.181Z,2.60
2018-12-16T22:34:44.646Z,2.60
2018-12-16T22:37:12.131Z,2.60
2018-12-16T22:39:39.582Z,2.60
2018-12-16T22:42:07.029Z,2.60
2018-12-16T22:44:34.507Z,2.60
2018-12-16T22:47:01.965Z,2.70
2018-12-16T22:49:29.579Z,2.60
2018-12-16T22:51:57.035Z,2.60
2018-12-16T22:54:24.809Z,2.60
2018-12-16T22:56:52.256Z,2.80
2018-12-16T22:59:19.720Z,2.80
2018-12-16T23:01:47.208Z,2.80
2018-12-16T23:04:14.676Z,2.90
2018-12-16T23:06:42.137Z,2.90
2018-12-16T23:09:09.593Z,2.90
2018-12-16T23:11:37.052Z,2.80
2018-12-16T23:14:04.519Z,2.90
2018-12-16T23:16:32.000Z,2.90
2018-12-16T23:18:59.515Z,2.90
2018-12-16T23:21:27.009Z,2.90
2018-12-16T23:23:54.749Z,2.80
2018-12-16T23:26:22.244Z,2.80
2018-12-16T23:28:49.708Z,2.90
2018-12-16T23:31:17.229Z,2.90
2018-12-16T23:33:44.756Z,2.90
2018-12-16T23:36:12.196Z,2.90
2018-12-16T23:38:39.732Z,2.90
2018-12-16T23:41:07.227Z,2.90
2018-12-16T23:43:34.694Z,2.80
2018-12-16T23:46:02.230Z,2.80
2018-12-16T23:48:29.717Z,2.80
2018-12-16T23:50:57.156Z,2.90
2018-12-16T23:53:24.625Z,2.80
2018-12-16T23:55:52.064Z,2.80
2018-12-16T23:58:19.539Z,2.80
